Time;durP1;ratioP1;P1;durP2;ratioP2;P2;SDS_P1;SDS_P2;PMS_P1;PMS_P2;Temp;Humidity;BMP_temperature;BMP_pressure;BME280_temperature;BME280_humidity;BME280_pressure;Samples;Min_cycle;Max_cycle;Signal;HPM_P1;HPM_P2
2022/05/04 00:02:18;;;;;;;13.15;3.55;;;7.40;99.90;;;;;;6159899;23;20125;-85
2022/05/04 00:04:43;;;;;;;13.88;4.30;;;7.40;99.90;;;;;;6186960;23;20048;-85
2022/05/04 00:07:09;;;;;;;17.58;3.80;;;7.40;99.90;;;;;;6185463;23;20445;-85
2022/05/04 00:09:35;;;;;;;13.48;3.55;;;7.40;99.90;;;;;;6194740;23;20013;-85
2022/05/04 00:12:00;;;;;;;14.32;3.55;;;7.40;99.90;;;;;;6209733;23;20017;-85
2022/05/04 00:14:26;;;;;;;12.07;3.30;;;7.40;99.90;;;;;;6164168;23;20064;-84
2022/05/04 00:16:52;;;;;;;13.38;4.15;;;7.40;99.90;;;;;;6187965;23;20017;-85
2022/05/04 00:19:18;;;;;;;12.13;3.78;;;7.40;99.90;;;;;;6186247;23;20017;-85
2022/05/04 00:21:43;;;;;;;12.05;3.72;;;7.40;99.90;;;;;;6158187;23;20310;-86
2022/05/04 00:24:09;;;;;;;11.88;3.92;;;7.40;99.90;;;;;;6186298;23;20389;-85
2022/05/04 00:26:34;;;;;;;10.48;3.50;;;7.40;99.90;;;;;;6158671;23;20322;-85
2022/05/04 00:29:00;;;;;;;14.80;3.65;;;7.40;99.90;;;;;;6185304;23;20164;-85
2022/05/04 00:31:26;;;;;;;15.13;3.97;;;7.40;99.90;;;;;;6159132;23;20025;-85
2022/05/04 00:33:51;;;;;;;13.85;3.75;;;7.40;99.90;;;;;;6158394;23;20025;-85
2022/05/04 00:36:17;;;;;;;11.25;3.30;;;7.40;99.90;;;;;;6186394;23;20447;-86
2022/05/04 00:38:43;;;;;;;12.27;3.67;;;7.40;99.90;;;;;;6185610;23;20025;-85
2022/05/04 00:41:08;;;;;;;12.68;3.42;;;7.40;99.90;;;;;;6184615;23;20024;-86
2022/05/04 00:43:34;;;;;;;11.80;3.47;;;7.40;99.90;;;;;;6185040;23;20028;-85
2022/05/04 00:45:59;;;;;;;11.27;3.50;;;7.40;99.90;;;;;;6158902;23;20045;-85
2022/05/04 00:48:25;;;;;;;10.57;3.83;;;7.40;99.90;;;;;;6188922;23;20044;-86
2022/05/04 00:50:51;;;;;;;12.35;3.30;;;7.30;99.90;;;;;;6159085;23;20025;-85
2022/05/04 00:53:18;;;;;;;12.40;3.60;;;7.30;99.90;;;;;;6186008;23;20107;-85
2022/05/04 00:55:45;;;;;;;11.20;4.05;;;7.30;99.90;;;;;;6185669;23;20088;-85
2022/05/04 01:01:00;;;;;;;13.27;3.53;;;7.30;99.90;;;;;;6185652;23;20450;-85
2022/05/04 01:03:25;;;;;;;15.25;3.55;;;7.30;99.90;;;;;;6184964;23;20013;-85
2022/05/04 01:05:51;;;;;;;11.75;3.58;;;7.30;99.90;;;;;;6158730;23;20091;-85
2022/05/04 01:08:17;;;;;;;11.02;3.40;;;7.30;99.90;;;;;;6186109;23;20021;-85
2022/05/04 01:10:43;;;;;;;14.25;3.70;;;7.30;99.90;;;;;;6184628;23;20009;-85
2022/05/04 01:13:09;;;;;;;11.02;3.40;;;7.30;99.90;;;;;;6158619;23;20092;-85
2022/05/04 01:15:35;;;;;;;12.50;3.38;;;7.30;99.90;;;;;;6185647;23;20040;-86
2022/05/04 01:18:01;;;;;;;11.93;3.30;;;7.30;99.90;;;;;;6184349;23;20017;-85
2022/05/04 01:20:27;;;;;;;12.80;3.40;;;7.30;99.90;;;;;;6159085;23;20013;-85
2022/05/04 01:22:53;;;;;;;11.77;3.53;;;7.30;99.90;;;;;;6184317;23;20324;-85
2022/05/04 01:25:19;;;;;;;13.15;3.47;;;7.30;99.90;;;;;;6158779;23;20068;-85
2022/05/04 01:27:45;;;;;;;12.13;3.40;;;7.30;99.90;;;;;;6158755;23;20021;-85
2022/05/04 01:30:12;;;;;;;17.42;4.22;;;7.30;99.90;;;;;;6184538;23;20017;-85
2022/05/04 01:32:38;;;;;;;11.25;3.65;;;7.20;99.90;;;;;;6184942;23;20028;-86
2022/05/04 01:35:04;;;;;;;12.73;3.25;;;7.20;99.90;;;;;;6186170;23;20025;-85
2022/05/04 01:37:30;;;;;;;14.65;3.50;;;7.30;99.90;;;;;;6184854;23;20020;-86
2022/05/04 01:39:56;;;;;;;12.75;3.22;;;7.30;99.90;;;;;;6159311;23;20337;-85
2022/05/04 01:42:24;;;;;;;14.18;3.80;;;7.20;99.90;;;;;;6159591;23;20055;-85
2022/05/04 01:44:50;;;;;;;11.73;3.70;;;7.20;99.90;;;;;;6158323;23;20017;-85
2022/05/04 01:47:15;;;;;;;11.93;3.15;;;7.30;99.90;;;;;;6185784;23;20028;-85
2022/05/04 01:49:41;;;;;;;11.27;3.60;;;7.20;99.90;;;;;;6185404;23;20326;-85
2022/05/04 01:52:07;;;;;;;14.50;3.83;;;7.30;99.90;;;;;;6184681;23;20017;-84
2022/05/04 01:54:33;;;;;;;11.75;3.28;;;7.20;99.90;;;;;;6185552;23;20068;-85
2022/05/04 01:56:59;;;;;;;11.52;3.53;;;7.20;99.90;;;;;;6184378;23;20024;-85
2022/05/04 01:59:25;;;;;;;15.07;3.50;;;7.20;99.90;;;;;;6184003;23;20021;-85
2022/05/04 02:01:51;;;;;;;14.48;3.83;;;7.20;99.90;;;;;;6184405;23;20401;-85
2022/05/04 02:04:18;;;;;;;12.20;3.45;;;7.20;99.90;;;;;;6184992;23;20052;-86
2022/05/04 02:06:44;;;;;;;12.27;3.38;;;7.20;99.90;;;;;;6157386;23;20045;-85
2022/05/04 02:09:10;;;;;;;12.30;4.05;;;7.20;99.90;;;;;;6158878;23;20025;-85
2022/05/04 02:11:37;;;;;;;13.65;3.72;;;7.20;99.90;;;;;;6185455;23;20092;-86
2022/05/04 02:14:03;;;;;;;11.70;3.50;;;7.10;99.90;;;;;;6157880;23;20013;-86
2022/05/04 02:16:29;;;;;;;12.68;3.42;;;7.20;99.90;;;;;;6186175;23;20330;-85
2022/05/04 02:18:56;;;;;;;15.95;3.40;;;7.10;99.90;;;;;;6186653;23;20017;-85
2022/05/04 02:21:22;;;;;;;11.40;3.35;;;7.10;99.90;;;;;;6161006;23;20021;-85
2022/05/04 02:23:47;;;;;;;10.57;3.53;;;7.20;99.90;;;;;;6161160;23;20017;-85
2022/05/04 02:26:13;;;;;;;11.48;3.30;;;7.10;99.90;;;;;;6186259;23;20377;-85
2022/05/04 02:28:38;;;;;;;10.77;3.15;;;7.10;99.90;;;;;;6161042;23;20349;-85
2022/05/04 02:31:04;;;;;;;10.63;3.50;;;7.10;99.90;;;;;;6160953;23;20095;-85
2022/05/04 02:33:30;;;;;;;12.35;3.20;;;7.10;99.90;;;;;;6159323;23;20009;-85
2022/05/04 02:38:40;;;;;;;;;;;7.10;99.90;;;;;;6187540;23;20021;-85
2022/05/04 02:41:05;;;;;;;10.88;3.60;;;7.10;99.90;;;;;;6160057;23;19916;-85
2022/05/04 02:43:32;;;;;;;12.98;3.28;;;7.10;99.90;;;;;;6160897;23;20025;-85
2022/05/04 02:45:58;;;;;;;11.77;4.10;;;7.10;99.90;;;;;;6186788;23;20314;-85
2022/05/04 02:48:23;;;;;;;13.13;3.40;;;7.00;99.90;;;;;;6187006;23;20028;-85
2022/05/04 02:50:49;;;;;;;12.93;3.28;;;7.10;99.90;;;;;;6187313;23;20013;-85
2022/05/04 02:53:15;;;;;;;14.57;3.75;;;7.10;99.90;;;;;;6187588;23;20377;-86
2022/05/04 02:55:40;;;;;;;9.18;3.15;;;7.10;99.90;;;;;;6185901;23;20085;-85
2022/05/04 02:58:06;;;;;;;11.32;3.78;;;7.10;99.90;;;;;;6161198;23;20032;-85
2022/05/04 03:00:32;;;;;;;11.52;3.10;;;7.00;99.90;;;;;;6160657;23;20021;-85
2022/05/04 03:02:57;;;;;;;11.75;3.00;;;7.00;99.90;;;;;;6186489;23;20071;-84
2022/05/04 03:05:24;;;;;;;12.27;3.67;;;7.00;99.90;;;;;;6187588;23;20155;-85
2022/05/04 03:07:49;;;;;;;15.38;4.10;;;7.00;99.90;;;;;;6186889;23;20469;-85
2022/05/04 03:10:16;;;;;;;11.75;3.78;;;7.00;99.90;;;;;;6186463;23;20071;-85
2022/05/04 03:12:42;;;;;;;15.05;3.38;;;7.00;99.90;;;;;;6186926;23;20025;-85
2022/05/04 03:15:08;;;;;;;12.93;3.38;;;6.90;99.90;;;;;;6160283;23;20079;-85
2022/05/04 03:17:34;;;;;;;9.85;3.08;;;6.90;99.90;;;;;;6159507;23;20449;-85
2022/05/04 03:20:00;;;;;;;11.88;3.83;;;6.90;99.90;;;;;;6160403;23;20560;-85
2022/05/04 03:22:26;;;;;;;11.57;3.38;;;6.80;99.90;;;;;;6160185;23;20017;-85
2022/05/04 03:24:53;;;;;;;12.05;3.50;;;6.80;99.90;;;;;;6186896;23;20345;-85
2022/05/04 03:27:18;;;;;;;14.23;3.45;;;6.80;99.90;;;;;;6187322;23;20017;-85
2022/05/04 03:29:44;;;;;;;12.38;3.60;;;6.80;99.90;;;;;;6158857;23;20441;-85
2022/05/04 03:32:10;;;;;;;11.50;4.00;;;6.70;99.90;;;;;;6185848;23;20024;-85
2022/05/04 03:34:37;;;;;;;13.27;4.05;;;6.70;99.90;;;;;;6160424;23;20067;-85
2022/05/04 03:37:03;;;;;;;10.80;3.42;;;6.70;99.90;;;;;;6158629;23;20461;-85
2022/05/04 03:39:29;;;;;;;10.45;3.72;;;6.70;99.90;;;;;;6160049;23;20099;-85
2022/05/04 03:41:55;;;;;;;11.95;3.50;;;6.70;99.90;;;;;;6160141;23;20040;-85
2022/05/04 03:44:21;;;;;;;10.15;3.30;;;6.70;99.90;;;;;;6159518;23;20186;-85
2022/05/04 03:46:51;;;;;;;10.90;3.28;;;6.70;99.90;;;;;;6186461;23;20067;-85
2022/05/04 03:49:18;;;;;;;10.70;3.10;;;6.60;99.90;;;;;;6186543;23;20083;-85
2022/05/04 03:51:44;;;;;;;10.98;3.45;;;6.60;99.90;;;;;;6185656;23;20333;-85
2022/05/04 03:54:11;;;;;;;12.75;3.63;;;6.60;99.90;;;;;;6160273;23;20021;-85
2022/05/04 03:56:37;;;;;;;13.20;3.20;;;6.60;99.90;;;;;;6160488;23;20017;-85
2022/05/04 03:59:04;;;;;;;12.25;3.40;;;6.60;99.90;;;;;;6158408;23;20017;-85
2022/05/04 04:01:30;;;;;;;9.27;3.30;;;6.50;99.90;;;;;;6186315;23;20016;-85
2022/05/04 04:03:56;;;;;;;10.75;3.47;;;6.60;99.90;;;;;;6158259;23;20071;-85
2022/05/04 04:06:22;;;;;;;11.40;3.40;;;6.60;99.90;;;;;;6184459;23;20044;-85
2022/05/04 04:08:51;;;;;;;12.50;3.60;;;6.60;99.90;;;;;;6158470;23;20393;-85
2022/05/04 04:11:20;;;;;;;13.27;3.42;;;6.70;99.90;;;;;;6159467;23;20025;-85
2022/05/04 04:13:46;;;;;;;9.70;3.30;;;6.60;99.90;;;;;;6158296;23;20013;-85
2022/05/04 04:16:11;;;;;;;13.25;3.70;;;6.70;99.90;;;;;;6159192;23;20393;-85
2022/05/04 04:18:37;;;;;;;13.68;3.45;;;6.70;99.90;;;;;;6158282;23;20031;-85
2022/05/04 04:23:47;;;;;;;12.20;3.58;;;6.70;99.90;;;;;;6185945;23;20021;-85
2022/05/04 04:26:12;;;;;;;15.30;3.90;;;6.70;99.90;;;;;;6184585;23;20017;-85
2022/05/04 04:28:39;;;;;;;14.43;3.67;;;6.80;99.90;;;;;;6159532;23;20024;-85
2022/05/04 04:31:06;;;;;;;14.90;3.50;;;6.80;99.90;;;;;;6159130;23;20449;-85
2022/05/04 04:33:31;;;;;;;12.45;3.60;;;6.90;99.90;;;;;;6185461;23;20021;-85
2022/05/04 04:35:58;;;;;;;11.50;3.65;;;6.90;99.90;;;;;;6185714;23;20021;-85
2022/05/04 04:38:27;;;;;;;16.05;4.32;;;6.90;99.90;;;;;;6159614;23;20318;-85
2022/05/04 04:40:53;;;;;;;14.30;3.65;;;6.90;99.90;;;;;;6157644;23;20020;-85
2022/05/04 04:43:19;;;;;;;11.13;3.50;;;7.00;99.90;;;;;;6159474;23;20017;-85
2022/05/04 04:45:45;;;;;;;15.27;3.50;;;7.00;99.90;;;;;;6159057;23;20017;-85
2022/05/04 04:48:12;;;;;;;12.90;3.40;;;7.00;99.90;;;;;;6184932;23;20028;-85
2022/05/04 04:50:37;;;;;;;11.23;3.53;;;7.10;99.90;;;;;;6159068;23;20425;-85
2022/05/04 04:53:03;;;;;;;11.27;3.40;;;7.10;99.90;;;;;;6159263;23;20024;-85
2022/05/04 04:55:29;;;;;;;13.38;3.80;;;7.10;99.90;;;;;;6158652;23;20484;-85
2022/05/04 04:57:55;;;;;;;12.02;3.63;;;7.20;99.90;;;;;;6185886;23;20325;-85
2022/05/04 05:00:21;;;;;;;13.00;3.67;;;7.20;99.90;;;;;;6159441;23;20041;-85
2022/05/04 05:02:47;;;;;;;17.15;3.40;;;7.30;99.90;;;;;;6184833;23;20419;-85
2022/05/04 05:05:13;;;;;;;13.25;3.70;;;7.30;99.90;;;;;;6185221;23;20459;-85
2022/05/04 05:07:38;;;;;;;12.25;3.90;;;7.30;99.90;;;;;;6185960;23;20017;-85
2022/05/04 05:10:05;;;;;;;17.52;5.15;;;8.10;99.90;;;;;;6158401;23;20021;-85
2022/05/04 05:12:31;;;;;;;12.07;3.75;;;7.40;99.90;;;;;;6159056;23;20492;-85
2022/05/04 05:17:40;;;;;;;;;;;7.50;99.90;;;;;;6159217;23;20029;-85
2022/05/04 05:20:07;;;;;;;15.25;3.38;;;7.50;99.90;;;;;;6185708;23;19916;-85
2022/05/04 05:22:32;;;;;;;13.75;3.70;;;7.60;99.90;;;;;;6185144;23;20021;-85
2022/05/04 05:24:58;;;;;;;12.18;3.90;;;7.70;99.90;;;;;;6186178;23;20017;-85
2022/05/04 05:27:24;;;;;;;12.68;3.72;;;7.70;99.90;;;;;;6186160;23;20052;-85
2022/05/04 05:29:49;;;;;;;13.77;3.67;;;7.80;99.90;;;;;;6184474;23;20303;-85
2022/05/04 05:32:15;;;;;;;14.77;3.97;;;7.80;99.90;;;;;;6185397;23;20036;-85
2022/05/04 05:34:41;;;;;;;11.98;3.10;;;7.80;99.90;;;;;;6185193;23;20310;-85
2022/05/04 05:37:07;;;;;;;11.13;3.00;;;7.90;99.90;;;;;;6184970;23;20017;-85
2022/05/04 05:39:33;;;;;;;13.23;4.00;;;7.90;99.90;;;;;;6158743;23;20024;-85
2022/05/04 05:41:59;;;;;;;14.30;3.90;;;7.90;99.90;;;;;;6158357;23;20479;-85
2022/05/04 05:44:25;;;;;;;13.00;3.60;;;7.90;99.90;;;;;;6184313;23;20013;-85
2022/05/04 05:46:50;;;;;;;11.35;3.00;;;7.90;99.90;;;;;;6158413;23;20095;-85
2022/05/04 05:49:16;;;;;;;10.02;3.20;;;8.00;99.90;;;;;;6186627;23;20112;-85
2022/05/04 05:51:45;;;;;;;13.98;3.20;;;8.00;99.90;;;;;;6157833;23;20445;-85
2022/05/04 05:54:10;;;;;;;11.32;3.10;;;8.10;99.90;;;;;;6159271;23;20017;-86
2022/05/04 05:56:36;;;;;;;12.27;3.72;;;8.10;99.90;;;;;;6158861;23;20015;-85
2022/05/04 05:59:03;;;;;;;12.75;3.35;;;8.20;99.90;;;;;;6157515;23;20039;-85
2022/05/04 06:01:29;;;;;;;13.82;2.80;;;8.20;99.90;;;;;;6185573;23;20023;-87
2022/05/04 06:03:54;;;;;;;11.25;2.90;;;8.30;99.90;;;;;;6158752;23;20095;-87
2022/05/04 06:06:21;;;;;;;10.70;2.80;;;8.40;99.90;;;;;;6185928;23;20013;-91
2022/05/04 06:08:46;;;;;;;11.90;3.28;;;8.40;99.90;;;;;;6158680;23;20024;-92
2022/05/04 06:11:12;;;;;;;11.38;3.50;;;8.50;99.90;;;;;;6159348;23;20017;-92
2022/05/04 06:13:37;;;;;;;12.45;3.50;;;8.50;99.90;;;;;;6160524;23;20020;-93
2022/05/04 06:16:03;;;;;;;11.95;3.85;;;8.50;99.90;;;;;;6159737;23;20123;-91
2022/05/04 06:18:29;;;;;;;10.82;3.05;;;8.60;99.90;;;;;;6158923;23;20044;-93
2022/05/04 06:20:54;;;;;;;11.88;3.05;;;8.60;99.90;;;;;;6160771;23;20048;-94
2022/05/04 06:23:20;;;;;;;11.27;2.97;;;8.70;99.90;;;;;;6187687;23;20326;-93
2022/05/04 06:25:46;;;;;;;10.82;3.42;;;8.80;99.90;;;;;;6158630;23;20096;-92
2022/05/04 06:28:12;;;;;;;11.73;3.30;;;8.80;99.90;;;;;;6159474;23;20027;-88
2022/05/04 06:36:06;;;;;;;10.95;3.00;;;8.90;99.90;;;;;;6177352;23;20024;-90
2022/05/04 06:38:38;;;;;;;10.73;3.38;;;8.90;99.90;;;;;;6181666;23;20032;-89
2022/05/04 06:41:07;;;;;;;13.80;3.75;;;8.80;99.90;;;;;;6185011;23;20060;-91
2022/05/04 06:43:35;;;;;;;10.98;3.30;;;10.10;99.90;;;;;;6184861;23;20009;-96
2022/05/04 06:46:11;;;;;;;10.43;2.90;;;8.80;99.90;;;;;;6183234;23;20441;-94
2022/05/04 06:48:37;;;;;;;10.45;2.72;;;9.30;99.90;;;;;;6183907;23;20040;-92
2022/05/04 06:51:02;;;;;;;8.98;2.60;;;9.40;99.90;;;;;;6158821;23;20096;-91
2022/05/04 06:53:28;;;;;;;12.43;3.67;;;9.50;99.90;;;;;;6183610;23;20020;-92
2022/05/04 06:55:54;;;;;;;9.57;2.80;;;9.70;99.90;;;;;;6183063;23;20021;-93
2022/05/04 06:58:19;;;;;;;11.60;3.20;;;9.80;99.90;;;;;;6184785;23;20072;-93
2022/05/04 07:01:06;;;;;;;9.85;2.80;;;9.90;99.90;;;;;;6183747;23;20013;-94
2022/05/04 07:03:32;;;;;;;10.30;3.10;;;10.00;99.90;;;;;;6184502;23;20088;-93
2022/05/04 07:05:58;;;;;;;9.13;2.97;;;10.20;99.90;;;;;;6184964;23;20488;-94
2022/05/04 07:08:30;;;;;;;9.77;2.78;;;11.60;99.90;;;;;;6187891;23;20017;-93
2022/05/04 07:10:55;;;;;;;8.35;2.58;;;10.60;99.90;;;;;;6194208;23;20064;-92
2022/05/04 07:13:21;;;;;;;11.10;3.20;;;10.50;99.90;;;;;;6186921;23;20039;-92
2022/05/04 07:15:47;;;;;;;16.33;4.82;;;10.50;99.90;;;;;;6184052;23;20017;-92
2022/05/04 07:18:12;;;;;;;12.65;3.30;;;11.20;99.90;;;;;;6184651;23;20495;-92
2022/05/04 07:20:38;;;;;;;9.35;2.65;;;10.70;99.90;;;;;;6184996;23;20464;-91
2022/05/04 07:23:03;;;;;;;12.57;3.10;;;10.70;99.90;;;;;;6184903;23;20051;-90
2022/05/04 07:25:29;;;;;;;12.43;3.25;;;10.80;99.90;;;;;;6186692;23;20013;-91
2022/05/04 07:27:55;;;;;;;12.77;3.30;;;10.80;99.90;;;;;;6186249;23;20117;-92
2022/05/04 07:30:20;;;;;;;11.57;3.03;;;10.80;99.90;;;;;;6186272;23;20017;-92
2022/05/04 07:32:46;;;;;;;10.05;2.53;;;10.80;99.90;;;;;;6186950;23;20025;-91
2022/05/04 07:35:12;;;;;;;10.90;2.90;;;10.70;99.90;;;;;;6187082;23;20017;-94
2022/05/04 07:37:38;;;;;;;11.40;2.90;;;10.80;99.90;;;;;;6184434;23;20051;-91
2022/05/04 07:42:48;;;;;;;10.18;2.92;;;10.80;99.90;;;;;;6183513;23;20449;-91
2022/05/04 07:45:15;;;;;;;12.70;3.30;;;10.80;99.90;;;;;;6185263;23;20021;-90
2022/05/04 07:47:40;;;;;;;10.45;2.90;;;10.90;99.90;;;;;;6186323;23;20021;-90
2022/05/04 07:50:08;;;;;;;13.02;3.08;;;11.00;99.90;;;;;;6184289;23;20021;-90
2022/05/04 07:52:34;;;;;;;14.23;3.22;;;11.00;99.90;;;;;;6187184;23;20515;-90
2022/05/04 07:55:00;;;;;;;10.40;2.80;;;11.10;99.90;;;;;;6185590;23;20013;-91
2022/05/04 07:57:26;;;;;;;10.73;3.20;;;11.10;99.90;;;;;;6183993;23;20017;-91
2022/05/04 08:05:23;;;;;;;11.23;3.20;;;11.50;99.90;;;;;;6194156;23;20025;-91
2022/05/04 08:07:50;;;;;;;11.02;3.10;;;11.70;99.90;;;;;;6209658;23;20017;-92
2022/05/04 08:10:16;;;;;;;10.45;2.80;;;11.80;99.90;;;;;;6194324;23;20071;-96
2022/05/04 08:12:41;;;;;;;13.23;3.55;;;11.90;99.90;;;;;;6198260;23;20432;-92
2022/05/04 08:15:07;;;;;;;11.82;3.10;;;12.10;99.90;;;;;;6185266;23;20475;-90
2022/05/04 08:17:33;;;;;;;12.40;3.47;;;12.10;99.90;;;;;;6185026;23;20025;-94
2022/05/04 08:19:59;;;;;;;10.10;2.92;;;12.00;99.90;;;;;;6186560;23;20365;-94
2022/05/04 08:22:26;;;;;;;9.60;2.92;;;12.00;99.90;;;;;;6188109;23;20055;-94
2022/05/04 08:24:52;;;;;;;9.27;2.60;;;12.10;99.90;;;;;;6186822;23;20032;-93
2022/05/04 08:27:18;;;;;;;11.00;3.10;;;12.20;99.90;;;;;;6160564;23;20496;-92
2022/05/04 08:29:44;;;;;;;11.60;3.05;;;12.10;99.90;;;;;;6185315;23;20028;-92
2022/05/04 08:32:10;;;;;;;12.48;3.28;;;12.20;99.90;;;;;;6183527;23;20021;-91
2022/05/04 08:34:36;;;;;;;10.82;3.03;;;12.30;99.90;;;;;;6186924;23;20021;-92
2022/05/04 08:37:02;;;;;;;11.10;3.10;;;12.30;99.90;;;;;;6185684;23;20221;-88
2022/05/04 08:39:28;;;;;;;12.75;3.60;;;12.30;99.90;;;;;;6180962;23;20021;-87
2022/05/04 08:41:54;;;;;;;10.90;3.53;;;12.20;99.90;;;;;;6184031;23;20345;-87
2022/05/04 08:44:19;;;;;;;10.88;3.30;;;12.20;99.90;;;;;;6186162;23;20013;-87
2022/05/04 08:46:45;;;;;;;9.50;3.50;;;12.20;99.90;;;;;;6184969;23;20495;-88
2022/05/04 08:49:12;;;;;;;10.48;3.15;;;12.30;99.90;;;;;;6184340;23;20028;-87
2022/05/04 08:51:39;;;;;;;12.82;3.33;;;12.10;99.90;;;;;;6185771;23;20341;-88
2022/05/04 08:54:07;;;;;;;9.40;3.60;;;11.80;99.90;;;;;;6185433;23;20016;-87
2022/05/04 08:56:34;;;;;;;9.52;3.50;;;12.00;99.90;;;;;;6185536;23;20052;-86
2022/05/04 08:59:07;;;;;;;13.93;3.33;;;12.00;99.90;;;;;;6183767;23;20053;-86
2022/05/04 09:01:39;;;;;;;11.85;4.03;;;12.00;99.90;;;;;;6183038;23;20437;-86
2022/05/04 09:04:06;;;;;;;10.75;3.53;;;11.90;99.90;;;;;;6183445;23;20048;-86
2022/05/04 09:06:33;;;;;;;10.40;3.42;;;11.80;99.90;;;;;;6186424;23;20017;-86
2022/05/04 09:09:10;;;;;;;13.45;3.67;;;12.00;99.90;;;;;;6183778;23;20156;-86
2022/05/04 09:11:44;;;;;;;13.05;3.67;;;12.40;99.90;;;;;;6186792;23;20139;-86
2022/05/04 09:14:17;;;;;;;9.73;3.83;;;12.50;99.90;;;;;;6185882;23;20052;-87
2022/05/04 09:16:43;;;;;;;13.25;4.28;;;12.60;99.90;;;;;;6185779;23;20021;-86
2022/05/04 09:19:11;;;;;;;10.52;3.85;;;12.50;99.90;;;;;;6184868;23;20021;-86
2022/05/04 09:21:40;;;;;;;13.57;4.90;;;12.60;99.90;;;;;;6184784;23;20009;-86
2022/05/04 09:24:09;;;;;;;11.80;4.13;;;12.60;99.90;;;;;;6185835;23;20096;-86
2022/05/04 09:26:42;;;;;;;16.83;5.25;;;12.50;99.90;;;;;;6186437;23;20087;-86
2022/05/04 09:29:11;;;;;;;10.57;4.15;;;13.30;99.90;;;;;;6183745;23;20096;-87
2022/05/04 09:31:40;;;;;;;11.70;4.15;;;12.70;99.90;;;;;;6186048;23;20326;-86
2022/05/04 09:34:11;;;;;;;11.45;4.22;;;12.20;99.90;;;;;;6185798;23;20052;-88
2022/05/04 09:44:54;;;;;;;11.90;4.50;;;12.30;99.90;;;;;;6183183;23;20060;-86
2022/05/04 09:45:11;;;;;;;12.98;4.13;;;12.90;99.90;;;;;;6186925;23;20021;-87
2022/05/04 09:47:46;;;;;;;10.63;3.97;;;11.70;99.90;;;;;;6186309;23;20136;-87
2022/05/04 09:50:14;;;;;;;11.73;4.68;;;11.40;99.90;;;;;;6159760;23;20586;-86
2022/05/04 09:52:50;;;;;;;13.77;4.15;;;11.90;99.90;;;;;;6186168;23;20060;-86
2022/05/04 09:55:24;;;;;;;11.48;4.10;;;13.00;99.90;;;;;;6185651;23;20019;-87
2022/05/04 09:57:51;;;;;;;10.10;3.90;;;12.30;99.90;;;;;;6184483;23;20017;-86
2022/05/04 10:00:20;;;;;;;11.00;4.55;;;12.40;99.90;;;;;;6185025;23;20334;-86
2022/05/04 10:02:46;;;;;;;12.43;4.10;;;12.80;99.90;;;;;;6184822;23;20337;-85
2022/05/04 10:05:22;;;;;;;11.48;3.90;;;13.60;99.90;;;;;;6158548;23;20021;-86
2022/05/04 10:07:53;;;;;;;13.43;4.30;;;13.40;99.90;;;;;;6185285;23;20032;-86
2022/05/04 10:10:28;;;;;;;11.48;4.00;;;13.30;99.90;;;;;;6184432;23;20017;-86
2022/05/04 10:13:10;;;;;;;13.57;3.80;;;13.60;99.90;;;;;;6186739;23;20031;-86
2022/05/04 10:15:41;;;;;;;12.63;4.35;;;14.10;99.90;;;;;;6186419;23;20492;-86
2022/05/04 10:18:19;;;;;;;13.50;4.05;;;14.20;99.90;;;;;;6185115;23;20325;-86
2022/05/04 10:21:02;;;;;;;14.38;4.20;;;14.10;99.90;;;;;;6189014;23;20048;-86
2022/05/04 10:24:07;;;;;;;13.00;4.90;;;14.20;99.90;;;;;;6185669;23;20016;-89
2022/05/04 10:26:44;;;;;;;11.07;4.10;;;14.00;99.90;;;;;;6157880;23;20028;-89
2022/05/04 10:32:33;;;;;;;11.88;4.63;;;13.90;99.90;;;;;;6184094;23;20380;-88
2022/05/04 10:35:31;;;;;;;11.25;4.05;;;13.80;99.90;;;;;;6182264;23;20025;-91
2022/05/04 10:37:59;;;;;;;12.30;4.43;;;13.90;99.90;;;;;;6184465;23;20028;-88
2022/05/04 10:40:54;;;;;;;11.18;4.18;;;13.80;99.90;;;;;;6186243;23;20067;-87
2022/05/04 10:43:45;;;;;;;11.23;4.75;;;13.70;99.90;;;;;;6185198;23;20028;-88
2022/05/04 10:46:13;;;;;;;11.93;4.30;;;13.80;99.90;;;;;;6186711;23;20021;-87
2022/05/04 10:49:02;;;;;;;12.90;4.90;;;13.90;99.90;;;;;;6184396;23;20096;-88
2022/05/04 10:51:39;;;;;;;12.52;4.20;;;14.10;99.90;;;;;;6186909;23;20013;-89
2022/05/04 10:54:17;;;;;;;15.13;5.18;;;14.40;99.90;;;;;;6186475;23;20024;-88
2022/05/04 10:56:50;;;;;;;14.85;5.07;;;14.50;99.90;;;;;;6185193;23;20092;-87
2022/05/04 10:59:26;;;;;;;15.13;4.75;;;14.60;99.60;;;;;;6187258;23;20417;-91
2022/05/04 11:01:56;;;;;;;13.70;4.20;;;14.60;99.90;;;;;;6185076;23;20013;-88
2022/05/04 11:04:25;;;;;;;11.13;4.90;;;15.00;99.90;;;;;;6187265;23;20017;-88
2022/05/04 11:07:00;;;;;;;11.52;4.20;;;15.40;99.90;;;;;;6184235;23;20009;-88
2022/05/04 11:09:33;;;;;;;11.88;4.30;;;15.60;99.80;;;;;;6185391;23;20016;-89
2022/05/04 11:12:01;;;;;;;11.70;3.75;;;15.50;97.60;;;;;;6191008;23;20053;-91
2022/05/04 11:14:27;;;;;;;10.07;3.83;;;15.60;98.00;;;;;;6188981;23;20031;-91
2022/05/04 11:16:55;;;;;;;9.55;3.72;;;15.60;97.20;;;;;;6184426;23;20021;-91
2022/05/04 11:19:26;;;;;;;10.35;3.80;;;15.60;96.90;;;;;;6189315;23;20315;-91
2022/05/04 11:21:53;;;;;;;11.48;4.00;;;15.60;96.90;;;;;;6191002;23;20017;-90
2022/05/04 11:24:19;;;;;;;11.90;3.58;;;15.70;96.70;;;;;;6190279;23;20021;-92
2022/05/04 11:26:47;;;;;;;13.10;4.20;;;16.00;96.50;;;;;;6184158;23;20046;-89
2022/05/04 11:29:16;;;;;;;13.70;4.28;;;15.70;95.30;;;;;;6185746;23;20013;-89
2022/05/04 11:31:59;;;;;;;10.02;3.40;;;15.40;95.60;;;;;;6184204;23;20013;-88
2022/05/04 11:34:33;;;;;;;11.57;4.00;;;15.50;95.60;;;;;;6186217;23;20013;-91
2022/05/04 11:37:04;;;;;;;10.73;4.22;;;15.50;95.30;;;;;;6185110;23;20296;-90
2022/05/04 11:39:30;;;;;;;9.98;4.03;;;15.00;94.80;;;;;;6185422;23;20021;-88
2022/05/04 11:41:59;;;;;;;12.05;3.50;;;15.00;95.40;;;;;;6183322;23;20075;-89
2022/05/04 11:44:26;;;;;;;9.90;3.40;;;15.10;95.60;;;;;;6186489;23;20017;-88
2022/05/04 11:46:53;;;;;;;10.32;3.83;;;15.30;95.80;;;;;;6185257;23;20036;-87
2022/05/04 11:49:21;;;;;;;11.65;3.70;;;15.40;95.90;;;;;;6183481;23;20013;-90
2022/05/04 11:51:47;;;;;;;12.98;3.92;;;15.60;95.60;;;;;;6185661;23;20437;-92
2022/05/04 11:54:12;;;;;;;12.13;3.92;;;15.60;95.30;;;;;;6184080;23;20068;-91
2022/05/04 11:56:38;;;;;;;12.65;3.90;;;15.70;95.10;;;;;;6185289;23;20013;-92
2022/05/04 11:59:05;;;;;;;11.15;3.42;;;15.90;95.20;;;;;;6186364;23;20148;-89
2022/05/04 12:01:30;;;;;;;11.07;3.40;;;16.50;95.50;;;;;;6184549;23;20017;-91
2022/05/04 12:03:57;;;;;;;10.10;3.50;;;16.60;94.80;;;;;;6185466;23;20024;-90
2022/05/04 12:06:22;;;;;;;12.98;3.90;;;16.70;94.40;;;;;;6185708;23;20385;-92
2022/05/04 12:08:48;;;;;;;10.65;3.60;;;16.60;94.30;;;;;;6186500;23;20013;-92
2022/05/04 12:11:15;;;;;;;10.32;3.35;;;16.60;94.10;;;;;;6186271;23;20021;-90
2022/05/04 12:13:42;;;;;;;11.00;3.72;;;16.60;94.00;;;;;;6184129;23;20429;-91
2022/05/04 12:16:10;;;;;;;10.63;3.60;;;16.50;93.80;;;;;;6186435;23;20068;-92
2022/05/04 12:18:38;;;;;;;10.88;3.88;;;16.60;93.20;;;;;;6185384;23;20368;-90
2022/05/04 12:21:16;;;;;;;10.48;4.03;;;16.50;93.20;;;;;;6186493;23;20348;-91
2022/05/04 12:23:47;;;;;;;10.02;3.67;;;16.80;93.10;;;;;;6185013;23;20021;-92
2022/05/04 12:26:14;;;;;;;9.90;3.60;;;16.90;93.30;;;;;;6196709;23;20044;-92
2022/05/04 12:28:41;;;;;;;10.68;3.35;;;17.00;93.10;;;;;;6186943;23;20013;-91
2022/05/04 12:33:55;;;;;;;11.32;3.97;;;17.40;93.20;;;;;;6183380;23;20492;-91
2022/05/04 12:36:23;;;;;;;13.35;3.80;;;17.70;93.30;;;;;;6183910;23;20481;-90
2022/05/04 12:38:50;;;;;;;12.10;3.78;;;18.00;93.20;;;;;;6184059;23;20088;-91
2022/05/04 12:41:19;;;;;;;11.98;4.15;;;18.10;92.90;;;;;;6185373;23;20056;-90
2022/05/04 12:43:45;;;;;;;10.30;3.50;;;18.40;93.30;;;;;;6185208;23;20345;-91
2022/05/04 12:46:15;;;;;;;12.40;3.45;;;19.00;92.90;;;;;;6184857;23;20020;-90
2022/05/04 12:48:44;;;;;;;10.68;3.72;;;18.60;92.10;;;;;;6185898;23;20013;-91
2022/05/04 12:51:11;;;;;;;9.75;3.50;;;18.40;91.60;;;;;;6183455;23;20013;-90
2022/05/04 12:53:40;;;;;;;11.95;3.40;;;18.10;91.50;;;;;;6183323;23;20429;-90
2022/05/04 12:58:52;;;;;;;11.50;4.05;;;18.10;91.70;;;;;;6185475;23;20025;-90
2022/05/04 13:01:22;;;;;;;12.73;3.75;;;17.90;91.10;;;;;;6185566;23;20024;-89
2022/05/04 13:03:48;;;;;;;12.32;3.17;;;18.10;90.90;;;;;;6183796;23;20472;-90
2022/05/04 13:06:13;;;;;;;11.30;3.38;;;17.40;91.30;;;;;;6185250;23;20021;-89
2022/05/04 13:08:39;;;;;;;11.13;3.45;;;17.30;90.90;;;;;;6184289;23;20027;-90
2022/05/04 13:11:05;;;;;;;11.05;3.38;;;17.60;91.20;;;;;;6185613;23;20083;-89
2022/05/04 13:13:31;;;;;;;9.93;3.22;;;17.90;91.30;;;;;;6183484;23;20377;-89
2022/05/04 13:15:56;;;;;;;12.68;3.22;;;18.20;91.20;;;;;;6183595;23;20021;-86
2022/05/04 13:18:22;;;;;;;11.48;3.30;;;18.60;91.10;;;;;;6185214;23;20032;-86
2022/05/04 13:20:49;;;;;;;14.48;3.75;;;18.40;90.20;;;;;;6184624;23;20088;-86
2022/05/04 13:23:15;;;;;;;10.57;3.50;;;18.10;89.50;;;;;;6185982;23;20404;-86
2022/05/04 13:25:41;;;;;;;10.55;3.15;;;18.00;89.50;;;;;;6184922;23;20381;-86